createdAt,value
2023-07-17T00:00:17.734Z,9.661705
2023-07-17T00:01:18.002Z,9.661505
2023-07-17T00:02:17.699Z,9.661348
2023-07-17T00:03:17.813Z,9.661445
2023-07-17T00:04:17.745Z,9.661546
2023-07-17T00:05:17.705Z,9.661546
2023-07-17T00:06:17.718Z,9.661593
2023-07-17T00:07:17.667Z,9.661570
2023-07-17T00:08:17.674Z,9.661472
2023-07-17T00:09:17.694Z,9.661371
2023-07-17T00:10:17.682Z,9.661617
2023-07-17T00:11:18.006Z,9.661314
2023-07-17T00:12:17.675Z,9.661413
2023-07-17T00:13:17.671Z,9.661686
2023-07-17T00:14:18.739Z,9.661399
2023-07-17T00:15:17.636Z,9.661570
2023-07-17T00:16:17.644Z,9.661517
2023-07-17T00:17:17.671Z,9.661010
2023-07-17T00:18:17.666Z,9.660670
2023-07-17T00:19:17.630Z,9.660667
2023-07-17T00:20:17.617Z,9.661443
2023-07-17T00:21:17.815Z,9.661561
2023-07-17T00:22:17.594Z,9.661654
2023-07-17T00:23:17.633Z,9.661357
2023-07-17T00:24:17.591Z,9.661804
2023-07-17T00:25:17.580Z,9.661871
2023-07-17T00:26:17.637Z,9.661812
2023-07-17T00:27:17.615Z,9.661827
2023-07-17T00:28:17.601Z,9.661942
2023-07-17T00:29:17.604Z,9.661744
2023-07-17T00:30:17.533Z,9.661466
2023-07-17T00:31:17.752Z,9.661715
2023-07-17T00:32:17.527Z,9.661530
2023-07-17T00:33:17.555Z,9.661609
2023-07-17T00:34:51.333Z,9.661469
2023-07-17T00:35:17.505Z,9.661525
2023-07-17T00:36:17.504Z,9.661536
2023-07-17T00:37:17.534Z,9.661329
2023-07-17T00:38:17.540Z,9.661196
2023-07-17T00:39:17.538Z,9.661309
2023-07-17T00:40:17.523Z,9.661560
2023-07-17T00:41:17.777Z,9.661626
2023-07-17T00:42:17.497Z,9.661594
2023-07-17T00:43:17.498Z,9.661528
2023-07-17T00:44:17.501Z,9.661543
2023-07-17T00:45:17.497Z,9.661519
2023-07-17T00:46:17.504Z,9.661592
2023-07-17T00:47:17.473Z,9.661707
2023-07-17T00:48:17.467Z,9.661657
2023-07-17T00:49:17.472Z,9.661810
2023-07-17T00:50:18.474Z,9.661850
2023-07-17T00:51:17.760Z,9.661692
2023-07-17T00:52:17.440Z,9.661411
2023-07-17T00:53:17.446Z,9.661414
2023-07-17T00:54:17.457Z,9.661897
2023-07-17T00:55:17.409Z,9.662169
2023-07-17T00:56:17.400Z,9.661668
2023-07-17T00:57:17.421Z,9.661781
2023-07-17T00:58:17.404Z,9.661730
2023-07-17T00:59:17.395Z,9.661578
2023-07-17T01:00:17.390Z,9.661578
2023-07-17T01:01:17.800Z,9.661670
2023-07-17T01:02:17.413Z,9.661728
2023-07-17T01:03:17.445Z,9.661724
2023-07-17T01:04:17.427Z,9.661782
2023-07-17T01:05:17.397Z,9.661819
2023-07-17T01:06:17.338Z,9.661787
2023-07-17T01:07:17.346Z,9.661496
2023-07-17T01:08:17.348Z,9.661630
2023-07-17T01:09:17.385Z,9.661733
2023-07-17T01:10:17.324Z,9.661523
2023-07-17T01:11:17.592Z,9.661277
2023-07-17T01:12:17.309Z,9.661466
2023-07-17T01:13:17.319Z,9.661037
2023-07-17T01:14:17.323Z,9.661776
2023-07-17T01:15:17.319Z,9.661426
2023-07-17T01:16:17.335Z,9.661545
2023-07-17T01:17:17.343Z,9.661534
2023-07-17T01:18:17.313Z,9.661713
2023-07-17T01:19:17.300Z,9.662125
2023-07-17T01:20:17.297Z,9.661709
2023-07-17T01:21:17.620Z,9.661695
2023-07-17T01:22:17.303Z,9.662285
2023-07-17T01:23:17.255Z,9.661814
2023-07-17T01:24:17.322Z,9.661370
2023-07-17T01:25:17.301Z,9.661576
2023-07-17T01:26:17.258Z,9.661290
2023-07-17T01:27:17.280Z,9.661742
2023-07-17T01:28:17.349Z,9.661718
2023-07-17T01:29:17.282Z,9.662025
2023-07-17T01:30:18.253Z,9.661213
2023-07-17T01:31:17.480Z,9.661213
2023-07-17T01:32:17.244Z,9.661213
2023-07-17T01:33:17.225Z,9.661213
2023-07-17T01:34:17.254Z,9.661213
2023-07-17T01:35:17.228Z,9.661213
2023-07-17T01:36:17.217Z,9.661213
2023-07-17T01:37:17.200Z,9.661213
2023-07-17T01:38:17.215Z,9.661213
2023-07-17T01:39:17.209Z,9.661660
2023-07-17T01:40:17.233Z,9.661637
2023-07-17T01:41:17.348Z,9.661637
2023-07-17T01:42:17.177Z,9.661637
2023-07-17T01:43:17.160Z,9.661637
2023-07-17T01:44:17.168Z,9.661666
2023-07-17T01:45:17.204Z,9.661552
2023-07-17T01:46:17.226Z,9.661593
2023-07-17T01:47:17.143Z,9.661778
2023-07-17T01:48:17.142Z,9.661891
2023-07-17T01:49:17.134Z,9.661749
2023-07-17T01:50:17.128Z,9.661657
2023-07-17T01:51:17.545Z,9.661851
2023-07-17T01:52:17.140Z,9.661501
2023-07-17T01:53:17.105Z,9.661511
2023-07-17T01:54:17.098Z,9.661461
2023-07-17T01:55:17.139Z,9.661542
2023-07-17T01:56:17.161Z,9.661580
2023-07-17T01:57:17.142Z,9.661471
2023-07-17T01:58:17.086Z,9.661582
2023-07-17T01:59:17.768Z,9.661570
2023-07-17T02:00:17.066Z,9.661501
2023-07-17T02:01:17.333Z,9.661448
2023-07-17T02:02:17.099Z,9.661523
2023-07-17T02:03:17.079Z,9.661457
2023-07-17T02:04:17.100Z,9.661510
2023-07-17T02:05:17.185Z,9.661522
2023-07-17T02:06:17.040Z,9.661501
2023-07-17T02:07:17.079Z,9.661530
2023-07-17T02:08:17.045Z,9.661450
2023-07-17T02:09:17.037Z,9.661490
2023-07-17T02:10:18.023Z,9.661602
2023-07-17T02:11:17.327Z,9.661469
2023-07-17T02:12:17.034Z,9.661489
2023-07-17T02:13:17.039Z,9.661454
2023-07-17T02:14:16.987Z,9.661471
2023-07-17T02:15:16.991Z,9.661427
2023-07-17T02:16:17.008Z,9.661403
2023-07-17T02:17:17.008Z,9.661632
2023-07-17T02:18:17.012Z,9.661510
2023-07-17T02:19:16.969Z,9.661572
2023-07-17T02:20:16.998Z,9.661463
2023-07-17T02:21:17.193Z,9.661422
2023-07-17T02:22:16.938Z,9.661395
2023-07-17T02:23:16.964Z,9.661488
2023-07-17T02:24:16.989Z,9.661469
2023-07-17T02:25:16.919Z,9.661617
2023-07-17T02:26:16.932Z,9.661465
2023-07-17T02:27:17.919Z,9.661577
2023-07-17T02:28:16.935Z,9.661565
2023-07-17T02:29:16.929Z,9.661586
2023-07-17T02:30:16.884Z,9.661449
2023-07-17T02:31:17.379Z,9.661571
2023-07-17T02:32:16.947Z,9.661570
2023-07-17T02:33:16.882Z,9.661456
2023-07-17T02:34:16.875Z,9.661583
2023-07-17T02:35:16.921Z,9.661459
2023-07-17T02:36:16.896Z,9.661559
2023-07-17T02:37:16.857Z,9.661641
2023-07-17T02:38:16.872Z,9.661747
2023-07-17T02:39:16.841Z,9.661747
2023-07-17T02:40:16.892Z,9.661720
2023-07-17T02:41:17.377Z,9.661702
2023-07-17T02:42:16.851Z,9.661753
2023-07-17T02:43:16.836Z,9.661613
2023-07-17T02:44:16.830Z,9.661594
2023-07-17T02:45:16.867Z,9.661630
2023-07-17T02:46:16.903Z,9.661695
2023-07-17T02:47:16.823Z,9.661541
2023-07-17T02:48:16.831Z,9.661564
2023-07-17T02:49:16.815Z,9.661638
2023-07-17T02:50:16.814Z,9.661608
2023-07-17T02:51:17.133Z,9.661749
2023-07-17T02:52:16.770Z,9.661821
2023-07-17T02:53:16.783Z,9.661520
2023-07-17T02:54:16.794Z,9.661391
2023-07-17T02:55:16.790Z,9.661315
2023-07-17T02:56:16.779Z,9.661437
2023-07-17T02:57:16.792Z,9.661345
2023-07-17T02:58:16.763Z,9.661166
2023-07-17T02:59:16.750Z,9.660400
2023-07-17T03:00:16.798Z,9.661172
2023-07-17T03:01:17.196Z,9.662192
2023-07-17T03:02:16.758Z,9.661968
2023-07-17T03:03:16.732Z,9.661621
2023-07-17T03:04:16.757Z,9.661370
2023-07-17T03:05:16.737Z,9.661247
2023-07-17T03:06:16.719Z,9.661394
2023-07-17T03:07:16.734Z,9.661673
2023-07-17T03:08:16.686Z,9.661160
2023-07-17T03:09:16.697Z,9.661146
2023-07-17T03:10:16.695Z,9.661147
2023-07-17T03:11:16.900Z,9.661214
2023-07-17T03:12:16.691Z,9.661557
2023-07-17T03:13:16.687Z,9.661536
2023-07-17T03:14:16.683Z,9.661805
2023-07-17T03:15:16.651Z,9.661672
2023-07-17T03:16:16.723Z,9.661538
2023-07-17T03:17:16.700Z,9.661440
2023-07-17T03:18:16.654Z,9.661571
2023-07-17T03:19:16.646Z,9.661614
2023-07-17T03:20:16.649Z,9.661601
2023-07-17T03:21:17.039Z,9.661619
2023-07-17T03:22:16.631Z,9.661652
2023-07-17T03:23:16.645Z,9.661585
2023-07-17T03:24:16.632Z,9.661568
2023-07-17T03:25:16.610Z,9.661511
2023-07-17T03:26:16.606Z,9.661501
2023-07-17T03:27:16.586Z,9.661533
2023-07-17T03:28:16.611Z,9.661556
2023-07-17T03:29:16.606Z,9.661506
2023-07-17T03:30:16.586Z,9.661470
2023-07-17T03:31:16.839Z,9.661448
2023-07-17T03:32:16.626Z,9.661475
2023-07-17T03:33:16.704Z,9.661459
2023-07-17T03:34:16.537Z,9.661381
2023-07-17T03:35:16.569Z,9.661414
2023-07-17T03:36:16.543Z,9.661354
2023-07-17T03:37:16.550Z,9.661379
2023-07-17T03:38:16.544Z,9.661367
2023-07-17T03:39:16.497Z,9.661366
2023-07-17T03:40:16.503Z,9.661421
2023-07-17T03:41:16.689Z,9.661365
2023-07-17T03:42:16.537Z,9.661461
2023-07-17T03:43:16.486Z,9.661549
2023-07-17T03:44:16.463Z,9.661677
2023-07-17T03:45:16.462Z,9.661677
2023-07-17T03:46:16.485Z,9.661888
2023-07-17T03:47:16.591Z,9.661958
2023-07-17T03:48:16.461Z,9.662014
2023-07-17T03:49:16.427Z,9.660994
2023-07-17T03:50:16.474Z,9.660469
2023-07-17T03:51:16.538Z,9.660843
2023-07-17T03:52:16.524Z,9.660953
2023-07-17T03:53:16.414Z,9.660825
2023-07-17T03:54:16.461Z,9.660910
2023-07-17T03:55:16.416Z,9.660768
2023-07-17T03:56:16.416Z,9.661109
2023-07-17T03:57:16.416Z,9.661438
2023-07-17T03:58:16.401Z,9.661394
2023-07-17T03:59:16.424Z,9.661754
2023-07-17T04:00:16.394Z,9.661891
2023-07-17T04:01:16.815Z,9.661705
2023-07-17T04:02:16.406Z,9.661869
2023-07-17T04:03:16.453Z,9.661805
2023-07-17T04:04:16.397Z,9.662057
2023-07-17T04:05:16.378Z,9.661787
2023-07-17T04:06:16.364Z,9.661790
2023-07-17T04:07:16.394Z,9.661661
2023-07-17T04:08:16.338Z,9.661638
2023-07-17T04:09:16.445Z,9.661519
2023-07-17T04:10:16.385Z,9.661484
2023-07-17T04:11:16.579Z,9.661484
2023-07-17T04:12:16.396Z,9.661484
2023-07-17T04:13:16.327Z,9.661484
2023-07-17T04:14:16.299Z,9.661589
2023-07-17T04:15:16.331Z,9.661632
2023-07-17T04:16:16.334Z,9.661617
2023-07-17T04:17:16.371Z,9.661462
2023-07-17T04:18:16.292Z,9.661633
2023-07-17T04:19:16.290Z,9.661681
2023-07-17T04:20:16.282Z,9.661497
2023-07-17T04:21:16.374Z,9.661618
2023-07-17T04:22:16.261Z,9.661620
2023-07-17T04:23:16.266Z,9.661514
2023-07-17T04:24:16.335Z,9.661577
2023-07-17T04:25:16.255Z,9.661335
2023-07-17T04:26:16.254Z,9.661591
2023-07-17T04:27:16.272Z,9.661751
2023-07-17T04:28:16.229Z,9.661573
2023-07-17T04:29:16.235Z,9.661562
2023-07-17T04:30:16.263Z,9.661583
2023-07-17T04:31:16.403Z,9.661554
2023-07-17T04:32:16.255Z,9.661590
2023-07-17T04:33:16.205Z,9.661538
2023-07-17T04:34:16.189Z,9.661617
2023-07-17T04:35:16.205Z,9.661510
2023-07-17T04:36:16.169Z,9.661431
2023-07-17T04:37:16.244Z,9.661461
2023-07-17T04:38:16.174Z,9.661529
2023-07-17T04:39:16.144Z,9.661440
2023-07-17T04:40:16.914Z,9.661535
2023-07-17T04:41:16.274Z,9.661375
2023-07-17T04:42:16.139Z,9.661455
2023-07-17T04:43:16.188Z,9.661437
2023-07-17T04:44:16.201Z,9.661507
2023-07-17T04:45:16.119Z,9.661613
2023-07-17T04:46:16.152Z,9.661510
2023-07-17T04:47:16.155Z,9.661535
2023-07-17T04:48:16.194Z,9.661304
2023-07-17T04:49:16.132Z,9.661366
2023-07-17T04:50:16.131Z,9.661496
2023-07-17T04:51:16.248Z,9.661433
2023-07-17T04:52:16.096Z,9.661440
2023-07-17T04:53:16.086Z,9.661455
2023-07-17T04:54:16.090Z,9.661712
2023-07-17T04:55:16.091Z,9.661916
2023-07-17T04:56:16.078Z,9.661489
2023-07-17T04:57:16.065Z,9.661489
2023-07-17T04:58:16.039Z,9.661514
2023-07-17T04:59:16.081Z,9.661508
2023-07-17T05:00:16.078Z,9.661332
2023-07-17T05:01:16.471Z,9.661240
2023-07-17T05:02:16.032Z,9.661444
2023-07-17T05:03:16.238Z,9.661362
2023-07-17T05:04:16.087Z,9.661483
2023-07-17T05:05:16.060Z,9.661648
2023-07-17T05:06:15.999Z,9.661858
2023-07-17T05:07:16.021Z,9.661638
2023-07-17T05:08:15.995Z,9.661725
2023-07-17T05:09:16.005Z,9.661689
2023-07-17T05:10:16.132Z,9.661575
2023-07-17T05:11:16.127Z,9.661519
2023-07-17T05:12:15.990Z,9.661799
2023-07-17T05:13:16.000Z,9.661774
2023-07-17T05:14:15.959Z,9.661716
2023-07-17T05:15:16.149Z,9.661619
2023-07-17T05:16:16.014Z,9.661616
2023-07-17T05:17:15.955Z,9.661439
2023-07-17T05:18:15.950Z,9.661367
2023-07-17T05:19:15.947Z,9.661466
2023-07-17T05:20:15.981Z,9.661459
2023-07-17T05:21:16.340Z,9.661488
2023-07-17T05:22:15.935Z,9.661394
2023-07-17T05:23:15.961Z,9.661545
2023-07-17T05:24:15.902Z,9.661555
2023-07-17T05:25:15.926Z,9.661591
2023-07-17T05:26:15.935Z,9.661622
2023-07-17T05:27:15.893Z,9.661478
2023-07-17T05:28:15.896Z,9.661549
2023-07-17T05:29:15.864Z,9.661487
2023-07-17T05:30:15.928Z,9.661477
2023-07-17T05:31:16.137Z,9.661530
2023-07-17T05:32:15.871Z,9.661524
2023-07-17T05:33:15.849Z,9.661483
2023-07-17T05:34:15.859Z,9.661534
2023-07-17T05:35:19.183Z,9.661407
2023-07-17T05:36:15.842Z,9.661440
2023-07-17T05:37:15.840Z,9.661570
2023-07-17T05:38:15.833Z,9.661625
2023-07-17T05:39:15.825Z,9.661492
2023-07-17T05:40:15.860Z,9.661469
2023-07-17T05:41:15.994Z,9.661489
2023-07-17T05:42:15.843Z,9.661559
2023-07-17T05:43:15.794Z,9.661555
2023-07-17T05:44:15.810Z,9.661633
2023-07-17T05:45:15.815Z,9.661487
2023-07-17T05:46:15.813Z,9.661455
2023-07-17T05:47:15.795Z,9.661519
2023-07-17T05:48:15.788Z,9.661420
2023-07-17T05:49:15.787Z,9.661593
2023-07-17T05:50:15.774Z,9.661839
2023-07-17T05:51:16.017Z,9.661839
2023-07-17T05:52:15.773Z,9.661393
2023-07-17T05:53:15.779Z,9.661469
2023-07-17T05:54:15.759Z,9.661540
2023-07-17T05:55:15.779Z,9.661482
2023-07-17T05:56:15.742Z,9.661510
2023-07-17T05:57:15.708Z,9.661515
2023-07-17T05:58:15.716Z,9.661605
2023-07-17T05:59:15.737Z,9.661451
2023-07-17T06:00:15.727Z,9.661386
2023-07-17T06:01:15.923Z,9.661372
2023-07-17T06:02:15.692Z,9.661390
2023-07-17T06:03:15.720Z,9.661501
2023-07-17T06:04:15.739Z,9.661482
2023-07-17T06:05:15.806Z,9.661345
2023-07-17T06:06:15.666Z,9.661345
2023-07-17T06:07:15.681Z,9.661330
2023-07-17T06:08:15.826Z,9.661220
2023-07-17T06:09:15.656Z,9.661263
2023-07-17T06:10:15.674Z,9.661592
2023-07-17T06:11:16.013Z,9.661593
2023-07-17T06:12:15.675Z,9.661641
2023-07-17T06:13:17.239Z,9.661629
2023-07-17T06:14:15.653Z,9.661620
2023-07-17T06:15:15.792Z,9.661442
2023-07-17T06:16:15.705Z,9.661517
2023-07-17T06:17:15.668Z,9.661530
2023-07-17T06:18:15.749Z,9.661481
2023-07-17T06:19:16.868Z,9.661445
2023-07-17T06:20:17.542Z,9.661316
2023-07-17T06:21:16.126Z,9.661448
2023-07-17T06:22:15.734Z,9.661475
2023-07-17T06:23:15.703Z,9.661462
2023-07-17T06:24:15.697Z,9.661381
2023-07-17T06:25:15.722Z,9.661510
2023-07-17T06:26:15.680Z,9.661471
2023-07-17T06:27:15.661Z,9.661564
2023-07-17T06:28:15.672Z,9.661492
2023-07-17T06:29:15.558Z,9.661446
2023-07-17T06:30:15.595Z,9.661478
2023-07-17T06:31:15.891Z,9.661539
2023-07-17T06:32:15.644Z,9.661510
2023-07-17T06:33:15.600Z,9.661542
2023-07-17T06:34:15.566Z,9.661535
2023-07-17T06:35:15.554Z,9.661495
2023-07-17T06:36:15.566Z,9.661482
2023-07-17T06:37:15.563Z,9.661435
2023-07-17T06:38:15.540Z,9.661478
2023-07-17T06:39:15.917Z,9.661489
2023-07-17T06:40:15.552Z,9.661472
2023-07-17T06:41:15.658Z,9.661412
2023-07-17T06:42:15.509Z,9.661454
2023-07-17T06:43:15.509Z,9.661635
2023-07-17T06:44:15.489Z,9.661563
2023-07-17T06:45:15.514Z,9.661566
2023-07-17T06:46:15.544Z,9.661684
2023-07-17T06:47:29.686Z,9.661482
2023-07-17T06:48:16.521Z,9.661325
2023-07-17T06:49:15.516Z,9.661572
2023-07-17T06:50:15.463Z,9.661408
2023-07-17T06:51:15.475Z,9.661599
2023-07-17T06:52:15.429Z,9.661589
2023-07-17T06:53:15.435Z,9.661474
2023-07-17T06:54:15.449Z,9.661185
2023-07-17T06:55:15.449Z,9.661489
2023-07-17T06:56:15.583Z,9.661490
2023-07-17T06:57:15.421Z,9.661465
2023-07-17T06:58:15.457Z,9.661353
2023-07-17T06:59:15.417Z,9.661309
2023-07-17T07:00:15.382Z,9.661481
2023-07-17T07:01:15.432Z,9.661548
2023-07-17T07:02:15.383Z,9.661530
2023-07-17T07:03:15.419Z,9.661562
2023-07-17T07:04:15.617Z,9.661606
2023-07-17T07:05:15.898Z,9.661634
2023-07-17T07:06:15.723Z,9.661673
2023-07-17T07:07:18.164Z,9.661412
2023-07-17T07:08:15.328Z,9.661273
2023-07-17T07:09:15.356Z,9.661310
2023-07-17T07:10:15.342Z,9.661161
2023-07-17T07:11:15.326Z,9.660888
2023-07-17T07:12:15.398Z,9.660693
2023-07-17T07:13:15.338Z,9.660671
2023-07-17T07:14:15.326Z,9.660571
2023-07-17T07:15:15.292Z,9.660984
2023-07-17T07:16:15.395Z,9.660952
2023-07-17T07:17:15.316Z,9.660703
2023-07-17T07:18:15.426Z,9.660730
2023-07-17T07:19:15.311Z,9.661270
2023-07-17T07:20:15.292Z,9.661694
2023-07-17T07:21:15.309Z,9.661723
2023-07-17T07:22:15.300Z,9.661514
2023-07-17T07:23:15.390Z,9.661492
2023-07-17T07:24:15.241Z,9.661468
2023-07-17T07:25:15.245Z,9.661594
2023-07-17T07:26:15.304Z,9.661531
2023-07-17T07:27:15.255Z,9.661593
2023-07-17T07:28:15.252Z,9.661512
2023-07-17T07:29:15.213Z,9.661514
2023-07-17T07:30:15.249Z,9.661466
2023-07-17T07:31:15.299Z,9.661459
2023-07-17T07:32:15.234Z,9.661457
2023-07-17T07:33:15.191Z,9.661453
2023-07-17T07:34:15.234Z,9.661474
2023-07-17T07:35:15.182Z,9.661524
2023-07-17T07:36:15.410Z,9.661482
2023-07-17T07:37:15.181Z,9.661511
2023-07-17T07:38:15.168Z,9.661516
2023-07-17T07:39:15.202Z,9.661514
2023-07-17T07:40:15.178Z,9.661514
2023-07-17T07:41:15.156Z,9.661493
2023-07-17T07:42:15.153Z,9.661463
2023-07-17T07:43:15.171Z,9.661454
2023-07-17T07:44:15.157Z,9.661402
2023-07-17T07:45:15.175Z,9.661428
2023-07-17T07:46:15.338Z,9.661530
2023-07-17T07:47:15.151Z,9.661577
2023-07-17T07:48:15.143Z,9.661492
2023-07-17T07:49:15.148Z,9.661478
2023-07-17T07:50:15.143Z,9.661450
2023-07-17T07:51:17.077Z,9.661442
2023-07-17T07:52:16.143Z,9.661597
2023-07-17T07:53:15.096Z,9.661542
2023-07-17T07:54:21.445Z,9.661507
2023-07-17T07:55:17.206Z,9.661497
2023-07-17T07:56:15.377Z,9.661692
2023-07-17T07:57:15.064Z,9.661324
2023-07-17T07:58:15.090Z,9.661392
2023-07-17T07:59:15.083Z,9.661433
2023-07-17T08:00:15.052Z,9.661336
2023-07-17T08:01:15.062Z,9.661402
2023-07-17T08:02:15.132Z,9.661242
2023-07-17T08:03:15.163Z,9.661419
2023-07-17T08:04:15.132Z,9.661535
2023-07-17T08:05:15.041Z,9.661494
2023-07-17T08:06:15.096Z,9.661256
2023-07-17T08:07:15.033Z,9.661189
2023-07-17T08:08:15.020Z,9.661132
2023-07-17T08:09:15.043Z,9.661033
2023-07-17T08:10:15.018Z,9.660994
2023-07-17T08:11:15.017Z,9.661023
2023-07-17T08:12:15.010Z,9.661049
2023-07-17T08:13:15.004Z,9.661018
2023-07-17T08:14:15.007Z,9.661029
2023-07-17T08:15:15.033Z,9.660777
2023-07-17T08:16:15.025Z,9.660761
2023-07-17T08:17:14.969Z,9.660707
2023-07-17T08:18:15.021Z,9.660809
2023-07-17T08:19:14.958Z,9.660891
2023-07-17T08:20:15.017Z,9.661220
2023-07-17T08:21:14.956Z,9.661162
2023-07-17T08:22:15.959Z,9.661270
2023-07-17T08:23:15.009Z,9.661225
2023-07-17T08:24:14.942Z,9.661137
2023-07-17T08:25:15.955Z,9.661153
2023-07-17T08:26:15.004Z,9.661315
2023-07-17T08:27:14.928Z,9.661435
2023-07-17T08:28:14.942Z,9.661349
2023-07-17T08:29:14.944Z,9.661364
2023-07-17T08:30:14.921Z,9.661347
2023-07-17T08:31:14.929Z,9.661489
2023-07-17T08:32:14.896Z,9.661603
2023-07-17T08:33:14.892Z,9.661701
2023-07-17T08:34:14.909Z,9.661660
2023-07-17T08:35:14.906Z,9.661636
2023-07-17T08:36:14.878Z,9.661609
2023-07-17T08:37:14.869Z,9.661619
2023-07-17T08:38:14.894Z,9.661548
2023-07-17T08:39:14.878Z,9.661519
2023-07-17T08:40:14.888Z,9.661497
2023-07-17T08:41:14.909Z,9.661425
2023-07-17T08:42:14.856Z,9.661525
2023-07-17T08:43:14.817Z,9.661647
2023-07-17T08:44:14.831Z,9.661620
2023-07-17T08:45:14.832Z,9.661612
2023-07-17T08:46:14.854Z,9.661529
2023-07-17T08:47:14.823Z,9.661622
2023-07-17T08:48:14.831Z,9.661617
2023-07-17T08:49:15.788Z,9.661503
2023-07-17T08:50:14.819Z,9.661464
2023-07-17T08:51:14.825Z,9.661391
2023-07-17T08:52:14.775Z,9.661330
2023-07-17T08:53:14.789Z,9.661359
2023-07-17T08:54:28.464Z,9.661573
2023-07-17T08:55:16.809Z,9.661469
2023-07-17T08:56:14.781Z,9.661512
2023-07-17T08:57:14.776Z,9.661525
2023-07-17T08:58:14.758Z,9.661467
2023-07-17T08:59:14.768Z,9.661563
2023-07-17T09:00:14.775Z,9.661340
2023-07-17T09:01:14.775Z,9.661343
2023-07-17T09:02:14.729Z,9.661512
2023-07-17T09:03:15.223Z,9.661280
2023-07-17T09:04:14.708Z,9.661316
2023-07-17T09:05:14.738Z,9.661654
2023-07-17T09:06:14.702Z,9.661712
2023-07-17T09:07:14.717Z,9.661531
2023-07-17T09:08:14.708Z,9.661530
2023-07-17T09:09:14.689Z,9.661559
2023-07-17T09:10:14.702Z,9.661346
2023-07-17T09:11:14.751Z,9.661394
2023-07-17T09:12:14.689Z,9.661383
2023-07-17T09:13:14.686Z,9.661358
2023-07-17T09:14:14.663Z,9.661385
2023-07-17T09:15:14.691Z,9.661623
2023-07-17T09:16:15.492Z,9.661513
2023-07-17T09:17:14.690Z,9.661689
2023-07-17T09:18:14.656Z,9.661629
2023-07-17T09:19:15.637Z,9.661385
2023-07-17T09:20:14.649Z,9.661393
2023-07-17T09:21:14.739Z,9.661274
2023-07-17T09:22:15.601Z,9.661360
2023-07-17T09:23:14.730Z,9.661518
2023-07-17T09:24:14.667Z,9.661353
2023-07-17T09:25:14.612Z,9.661213
2023-07-17T09:26:14.610Z,9.661343
2023-07-17T09:27:14.590Z,9.661439
2023-07-17T09:28:14.603Z,9.661480
2023-07-17T09:29:14.584Z,9.661292
2023-07-17T09:30:14.577Z,9.661316
2023-07-17T09:31:14.640Z,9.661406
2023-07-17T09:32:14.576Z,9.661450
2023-07-17T09:33:14.565Z,9.661459
2023-07-17T09:34:14.600Z,9.661428
2023-07-17T09:35:14.613Z,9.661293
2023-07-17T09:36:14.547Z,9.661367
2023-07-17T09:37:14.529Z,9.661467
2023-07-17T09:38:14.556Z,9.661614
2023-07-17T09:39:14.520Z,9.661562
2023-07-17T09:40:14.559Z,9.661422
2023-07-17T09:41:14.521Z,9.661118
2023-07-17T09:42:14.515Z,9.661366
2023-07-17T09:43:14.502Z,9.661427
2023-07-17T09:44:14.488Z,9.661884
2023-07-17T09:45:14.481Z,9.661830
2023-07-17T09:46:15.547Z,9.662081
2023-07-17T09:47:14.529Z,9.662051
2023-07-17T09:48:14.467Z,9.661935
2023-07-17T09:49:14.474Z,9.661620
2023-07-17T09:50:14.493Z,9.661520
2023-07-17T09:51:14.542Z,9.661532
2023-07-17T09:52:14.449Z,9.661381
2023-07-17T09:53:14.433Z,9.661482
2023-07-17T09:54:14.450Z,9.661400
2023-07-17T09:55:14.441Z,9.661123
2023-07-17T09:56:14.453Z,9.661249
2023-07-17T09:57:14.434Z,9.661378
2023-07-17T09:58:14.402Z,9.661465
2023-07-17T09:59:14.435Z,9.661279
2023-07-17T10:00:14.540Z,9.661318
2023-07-17T10:01:14.463Z,9.661268
2023-07-17T10:02:14.429Z,9.661359
2023-07-17T10:03:14.654Z,9.661267
2023-07-17T10:04:14.528Z,9.661559
2023-07-17T10:05:14.386Z,9.661024
2023-07-17T10:06:14.398Z,9.660988
2023-07-17T10:07:14.387Z,9.660335
2023-07-17T10:08:14.454Z,9.660451
2023-07-17T10:09:14.371Z,9.659951
2023-07-17T10:10:14.463Z,9.659711
2023-07-17T10:11:14.419Z,9.658984
2023-07-17T10:12:14.352Z,9.657714
2023-07-17T10:13:14.353Z,9.660397
2023-07-17T10:14:14.346Z,9.660601
2023-07-17T10:15:14.374Z,9.660653
2023-07-17T10:16:14.408Z,9.660560
2023-07-17T10:17:14.366Z,9.661163
2023-07-17T10:18:14.401Z,9.661282
2023-07-17T10:19:14.402Z,9.661282
2023-07-17T10:20:14.365Z,9.661282
2023-07-17T10:21:14.450Z,9.661282
2023-07-17T10:22:14.327Z,9.661883
2023-07-17T10:23:14.364Z,9.661708
2023-07-17T10:24:14.300Z,9.661635
2023-07-17T10:25:14.295Z,9.661563
2023-07-17T10:26:14.292Z,9.661421
2023-07-17T10:27:14.296Z,9.661508
2023-07-17T10:28:14.298Z,9.661463
2023-07-17T10:29:14.264Z,9.661453
2023-07-17T10:30:14.283Z,9.661255
2023-07-17T10:31:14.352Z,9.661348
2023-07-17T10:32:14.267Z,9.661312
2023-07-17T10:33:14.257Z,9.661354
2023-07-17T10:34:14.263Z,9.661486
2023-07-17T10:35:14.249Z,9.660809
2023-07-17T10:36:14.277Z,9.661619
2023-07-17T10:37:14.229Z,9.662019
2023-07-17T10:38:14.231Z,9.661983
2023-07-17T10:39:14.221Z,9.661302
2023-07-17T10:40:14.308Z,9.660982
2023-07-17T10:41:14.312Z,9.661240
2023-07-17T10:42:14.222Z,9.661186
2023-07-17T10:43:14.241Z,9.661155
2023-07-17T10:44:19.496Z,9.661358
2023-07-17T10:45:15.224Z,9.661251
2023-07-17T10:46:14.216Z,9.661453
2023-07-17T10:47:14.195Z,9.661875
2023-07-17T10:48:14.351Z,9.661201
2023-07-17T10:49:14.211Z,9.661850
2023-07-17T10:50:14.219Z,9.661557
2023-07-17T10:51:14.258Z,9.661695
2023-07-17T10:52:14.193Z,9.661792
2023-07-17T10:53:14.162Z,9.661527
2023-07-17T10:54:14.163Z,9.661392
2023-07-17T10:55:14.143Z,9.660908
2023-07-17T10:56:14.202Z,9.660861
2023-07-17T10:57:14.123Z,9.660221
2023-07-17T10:58:14.127Z,9.661068
2023-07-17T10:59:14.121Z,9.661397
2023-07-17T11:00:14.130Z,9.661458
2023-07-17T11:01:14.152Z,9.661517
2023-07-17T11:02:14.266Z,9.661474
2023-07-17T11:03:14.125Z,9.661440
2023-07-17T11:04:14.168Z,9.661425
2023-07-17T11:05:15.016Z,9.661389
2023-07-17T11:06:14.084Z,9.661400
2023-07-17T11:07:14.115Z,9.661507
2023-07-17T11:08:14.144Z,9.661469
2023-07-17T11:09:14.089Z,9.661480
2023-07-17T11:10:14.102Z,9.661395
2023-07-17T11:11:14.083Z,9.661317
2023-07-17T11:12:14.108Z,9.661379
2023-07-17T11:13:14.086Z,9.661452
2023-07-17T11:14:14.055Z,9.661370
2023-07-17T11:15:14.046Z,9.661455
2023-07-17T11:16:14.036Z,9.661463
2023-07-17T11:17:14.098Z,9.661371
2023-07-17T11:18:14.089Z,9.661462
2023-07-17T11:19:14.051Z,9.661528
2023-07-17T11:20:14.015Z,9.661560
2023-07-17T11:21:14.051Z,9.661503
2023-07-17T11:22:14.056Z,9.661527
2023-07-17T11:23:14.138Z,9.661541
2023-07-17T11:24:14.014Z,9.661636
2023-07-17T11:25:13.994Z,9.661604
2023-07-17T11:26:14.023Z,9.661546
2023-07-17T11:27:14.021Z,9.661654
2023-07-17T11:28:14.013Z,9.661778
2023-07-17T11:29:13.977Z,9.660244
2023-07-17T11:30:14.015Z,9.662278
2023-07-17T11:31:14.127Z,9.661962
2023-07-17T11:32:14.132Z,9.661902
2023-07-17T11:33:13.953Z,9.661618
2023-07-17T11:34:13.958Z,9.661482
2023-07-17T11:35:13.968Z,9.661228
2023-07-17T11:36:13.967Z,9.661475
2023-07-17T11:37:13.977Z,9.661341
2023-07-17T11:38:13.945Z,9.661391
2023-07-17T11:39:13.977Z,9.661538
2023-07-17T11:40:13.948Z,9.661591
2023-07-17T11:41:13.974Z,9.661544
2023-07-17T11:42:13.938Z,9.661521
2023-07-17T11:43:13.926Z,9.661521
2023-07-17T11:44:13.913Z,9.661521